sensor_id;sensor_type;location;lat;lon;timestamp;pressure;altitude;pressure_sealevel;temperature;humidity
7918;BME280;4004;42.624;23.386;2023-03-04T00:01:20;94161.38;;;6.25;100.00
7918;BME280;4004;42.624;23.386;2023-03-04T00:03:46;94158.09;;;6.28;100.00
7918;BME280;4004;42.624;23.386;2023-03-04T00:06:13;94165.78;;;6.29;100.00
7918;BME280;4004;42.624;23.386;2023-03-04T00:08:40;94155.91;;;6.42;100.00
7918;BME280;4004;42.624;23.386;2023-03-04T00:11:08;94158.13;;;6.40;100.00
7918;BME280;4004;42.624;23.386;2023-03-04T00:13:34;94156.38;;;6.44;100.00
7918;BME280;4004;42.624;23.386;2023-03-04T00:16:01;94150.25;;;6.43;100.00
7918;BME280;4004;42.624;23.386;2023-03-04T00:18:28;94148.09;;;6.37;100.00
7918;BME280;4004;42.624;23.386;2023-03-04T00:20:55;94148.63;;;6.30;100.00
7918;BME280;4004;42.624;23.386;2023-03-04T00:23:21;94148.50;;;6.27;100.00
7918;BME280;4004;42.624;23.386;2023-03-04T00:25:48;94148.84;;;6.25;100.00
7918;BME280;4004;42.624;23.386;2023-03-04T00:28:18;94150.53;;;6.30;100.00
7918;BME280;4004;42.624;23.386;2023-03-04T00:30:45;94142.53;;;6.30;100.00
7918;BME280;4004;42.624;23.386;2023-03-04T00:33:11;94151.31;;;6.30;100.00
7918;BME280;4004;42.624;23.386;2023-03-04T00:35:38;94148.63;;;6.30;100.00
7918;BME280;4004;42.624;23.386;2023-03-04T00:38:05;94144.97;;;6.35;100.00
7918;BME280;4004;42.624;23.386;2023-03-04T00:40:31;94148.09;;;6.37;100.00
7918;BME280;4004;42.624;23.386;2023-03-04T00:42:58;94150.47;;;6.38;100.00
7918;BME280;4004;42.624;23.386;2023-03-04T00:45:26;94155.00;;;6.38;100.00
7918;BME280;4004;42.624;23.386;2023-03-04T00:47:53;94149.88;;;6.33;100.00
7918;BME280;4004;42.624;23.386;2023-03-04T00:50:20;94150.63;;;6.33;100.00
7918;BME280;4004;42.624;23.386;2023-03-04T00:52:46;94147.13;;;6.41;100.00
7918;BME280;4004;42.624;23.386;2023-03-04T00:55:13;94147.00;;;6.38;100.00
7918;BME280;4004;42.624;23.386;2023-03-04T00:57:40;94140.09;;;6.37;100.00
7918;BME280;4004;42.624;23.386;2023-03-04T01:00:08;94144.31;;;6.38;100.00
7918;BME280;4004;42.624;23.386;2023-03-04T01:02:36;94140.09;;;6.37;100.00
7918;BME280;4004;42.624;23.386;2023-03-04T01:05:03;94136.59;;;6.45;100.00
7918;BME280;4004;42.624;23.386;2023-03-04T01:07:30;94140.81;;;6.46;100.00
7918;BME280;4004;42.624;23.386;2023-03-04T01:09:57;94135.78;;;6.44;100.00
7918;BME280;4004;42.624;23.386;2023-03-04T01:12:24;94130.88;;;6.47;100.00
7918;BME280;4004;42.624;23.386;2023-03-04T01:14:50;94127.75;;;6.44;100.00
7918;BME280;4004;42.624;23.386;2023-03-04T01:17:17;94126.22;;;6.43;100.00
7918;BME280;4004;42.624;23.386;2023-03-04T01:19:45;94119.13;;;6.48;100.00
7918;BME280;4004;42.624;23.386;2023-03-04T01:22:12;94113.44;;;6.49;100.00
7918;BME280;4004;42.624;23.386;2023-03-04T01:24:39;94121.78;;;6.48;100.00
7918;BME280;4004;42.624;23.386;2023-03-04T01:27:06;94118.34;;;6.47;100.00
7918;BME280;4004;42.624;23.386;2023-03-04T01:29:33;94115.53;;;6.43;100.00
7918;BME280;4004;42.624;23.386;2023-03-04T01:32:00;94105.63;;;6.44;100.00
7918;BME280;4004;42.624;23.386;2023-03-04T01:34:26;94105.88;;;6.51;100.00
7918;BME280;4004;42.624;23.386;2023-03-04T01:36:54;94108.34;;;6.56;100.00
7918;BME280;4004;42.624;23.386;2023-03-04T01:39:21;94107.00;;;6.50;100.00
7918;BME280;4004;42.624;23.386;2023-03-04T01:41:48;94111.09;;;6.48;100.00
7918;BME280;4004;42.624;23.386;2023-03-04T01:44:15;94107.44;;;6.52;100.00
7918;BME280;4004;42.624;23.386;2023-03-04T01:46:46;94097.63;;;6.44;100.00
7918;BME280;4004;42.624;23.386;2023-03-04T01:49:14;94104.84;;;6.43;100.00
7918;BME280;4004;42.624;23.386;2023-03-04T01:51:43;94101.88;;;6.45;100.00
7918;BME280;4004;42.624;23.386;2023-03-04T01:54:13;94099.50;;;6.43;100.00
7918;BME280;4004;42.624;23.386;2023-03-04T01:56:40;94097.69;;;6.35;100.00
7918;BME280;4004;42.624;23.386;2023-03-04T01:59:08;94092.81;;;6.37;100.00
7918;BME280;4004;42.624;23.386;2023-03-04T02:01:37;94106.94;;;6.38;100.00
7918;BME280;4004;42.624;23.386;2023-03-04T02:04:04;94098.50;;;6.36;100.00
7918;BME280;4004;42.624;23.386;2023-03-04T02:06:32;94098.81;;;6.34;100.00
7918;BME280;4004;42.624;23.386;2023-03-04T02:08:59;94096.59;;;6.36;100.00
7918;BME280;4004;42.624;23.386;2023-03-04T02:11:27;94090.91;;;6.38;100.00
7918;BME280;4004;42.624;23.386;2023-03-04T02:13:54;94095.63;;;6.41;100.00
7918;BME280;4004;42.624;23.386;2023-03-04T02:16:20;94092.50;;;6.39;100.00
7918;BME280;4004;42.624;23.386;2023-03-04T02:18:47;94090.13;;;6.37;100.00
7918;BME280;4004;42.624;23.386;2023-03-04T02:21:18;94080.13;;;6.34;100.00
7918;BME280;4004;42.624;23.386;2023-03-04T02:23:55;94087.69;;;6.32;100.00
7918;BME280;4004;42.624;23.386;2023-03-04T02:26:27;94098.22;;;6.29;100.00
7918;BME280;4004;42.624;23.386;2023-03-04T02:28:56;94093.56;;;6.26;100.00
7918;BME280;4004;42.624;23.386;2023-03-04T02:31:25;94093.41;;;6.22;100.00
7918;BME280;4004;42.624;23.386;2023-03-04T02:33:55;94089.41;;;6.16;100.00
7918;BME280;4004;42.624;23.386;2023-03-04T02:36:22;94091.03;;;6.08;100.00
7918;BME280;4004;42.624;23.386;2023-03-04T02:38:50;94083.75;;;5.96;100.00
7918;BME280;4004;42.624;23.386;2023-03-04T02:41:21;94081.69;;;5.93;100.00
7918;BME280;4004;42.624;23.386;2023-03-04T02:43:52;94082.88;;;5.84;100.00
7918;BME280;4004;42.624;23.386;2023-03-04T02:46:19;94082.22;;;5.87;100.00
7918;BME280;4004;42.624;23.386;2023-03-04T02:48:46;94081.97;;;5.79;100.00
7918;BME280;4004;42.624;23.386;2023-03-04T02:51:13;94077.53;;;5.84;100.00
7918;BME280;4004;42.624;23.386;2023-03-04T02:53:39;94072.88;;;5.80;100.00
7918;BME280;4004;42.624;23.386;2023-03-04T02:56:06;94082.09;;;5.83;100.00
7918;BME280;4004;42.624;23.386;2023-03-04T02:58:33;94086.16;;;5.89;100.00
7918;BME280;4004;42.624;23.386;2023-03-04T03:01:01;94080.81;;;5.89;100.00
7918;BME280;4004;42.624;23.386;2023-03-04T03:03:28;94086.91;;;5.90;100.00
7918;BME280;4004;42.624;23.386;2023-03-04T03:05:55;94080.66;;;5.86;100.00
7918;BME280;4004;42.624;23.386;2023-03-04T03:08:22;94081.13;;;5.88;100.00
7918;BME280;4004;42.624;23.386;2023-03-04T03:10:48;94078.78;;;5.86;100.00
7918;BME280;4004;42.624;23.386;2023-03-04T03:13:15;94080.06;;;5.80;100.00
7918;BME280;4004;42.624;23.386;2023-03-04T03:15:42;94078.97;;;5.81;100.00
7918;BME280;4004;42.624;23.386;2023-03-04T03:18:11;94075.84;;;5.79;100.00
7918;BME280;4004;42.624;23.386;2023-03-04T03:20:37;94081.31;;;5.82;100.00
7918;BME280;4004;42.624;23.386;2023-03-04T03:23:04;94078.66;;;5.82;100.00
7918;BME280;4004;42.624;23.386;2023-03-04T03:25:31;94078.66;;;5.82;100.00
7918;BME280;4004;42.624;23.386;2023-03-04T03:27:58;94075.06;;;5.78;100.00
7918;BME280;4004;42.624;23.386;2023-03-04T03:30:24;94072.59;;;5.73;100.00
7918;BME280;4004;42.624;23.386;2023-03-04T03:32:51;94072.59;;;5.73;100.00
7918;BME280;4004;42.624;23.386;2023-03-04T03:35:19;94071.56;;;5.66;100.00
7918;BME280;4004;42.624;23.386;2023-03-04T03:37:46;94074.13;;;5.53;100.00
7918;BME280;4004;42.624;23.386;2023-03-04T03:40:13;94073.59;;;5.39;100.00
7918;BME280;4004;42.624;23.386;2023-03-04T03:42:40;94070.66;;;5.32;100.00
7918;BME280;4004;42.624;23.386;2023-03-04T03:45:08;94068.84;;;5.24;100.00
7918;BME280;4004;42.624;23.386;2023-03-04T03:47:35;94065.44;;;5.14;100.00
7918;BME280;4004;42.624;23.386;2023-03-04T03:50:02;94066.25;;;5.06;100.00
7918;BME280;4004;42.624;23.386;2023-03-04T03:52:30;94065.47;;;5.06;100.00
7918;BME280;4004;42.624;23.386;2023-03-04T03:54:57;94061.25;;;5.05;100.00
7918;BME280;4004;42.624;23.386;2023-03-04T03:57:26;94059.41;;;4.96;100.00
7918;BME280;4004;42.624;23.386;2023-03-04T03:59:52;94055.19;;;4.87;100.00
7918;BME280;4004;42.624;23.386;2023-03-04T04:02:19;94052.09;;;4.85;100.00
7918;BME280;4004;42.624;23.386;2023-03-04T04:04:46;94055.59;;;4.68;100.00
7918;BME280;4004;42.624;23.386;2023-03-04T04:07:13;94050.00;;;4.61;100.00
7918;BME280;4004;42.624;23.386;2023-03-04T04:09:41;94056.28;;;4.56;100.00
7918;BME280;4004;42.624;23.386;2023-03-04T04:12:10;94061.91;;;4.54;100.00
7918;BME280;4004;42.624;23.386;2023-03-04T04:14:37;94052.72;;;4.43;100.00
7918;BME280;4004;42.624;23.386;2023-03-04T04:17:03;94050.78;;;4.52;100.00
7918;BME280;4004;42.624;23.386;2023-03-04T04:19:30;94061.13;;;4.54;100.00
7918;BME280;4004;42.624;23.386;2023-03-04T04:21:57;94059.91;;;4.51;100.00
7918;BME280;4004;42.624;23.386;2023-03-04T04:24:24;94058.00;;;4.52;100.00
7918;BME280;4004;42.624;23.386;2023-03-04T04:26:52;94058.78;;;4.52;100.00
7918;BME280;4004;42.624;23.386;2023-03-04T04:29:19;94047.38;;;4.43;100.00
7918;BME280;4004;42.624;23.386;2023-03-04T04:31:47;94057.72;;;4.45;100.00
7918;BME280;4004;42.624;23.386;2023-03-04T04:34:14;94063.81;;;4.45;100.00
7918;BME280;4004;42.624;23.386;2023-03-04T04:36:40;94056.63;;;4.37;100.00
7918;BME280;4004;42.624;23.386;2023-03-04T04:39:07;94055.84;;;4.36;100.00
7918;BME280;4004;42.624;23.386;2023-03-04T04:41:36;94062.25;;;4.44;100.00
7918;BME280;4004;42.624;23.386;2023-03-04T04:44:05;94047.59;;;4.29;100.00
7918;BME280;4004;42.624;23.386;2023-03-04T04:46:32;94047.72;;;4.24;100.00
7918;BME280;4004;42.624;23.386;2023-03-04T04:48:59;94050.25;;;4.21;100.00
7918;BME280;4004;42.624;23.386;2023-03-04T04:51:26;94047.44;;;4.17;100.00
7918;BME280;4004;42.624;23.386;2023-03-04T04:53:53;94041.03;;;4.09;100.00
7918;BME280;4004;42.624;23.386;2023-03-04T04:56:23;94059.97;;;4.17;100.00
7918;BME280;4004;42.624;23.386;2023-03-04T04:58:51;94064.03;;;4.14;100.00
7918;BME280;4004;42.624;23.386;2023-03-04T05:01:19;94054.34;;;4.18;100.00
7918;BME280;4004;42.624;23.386;2023-03-04T05:03:46;94061.38;;;4.23;100.00
7918;BME280;4004;42.624;23.386;2023-03-04T05:06:15;94056.81;;;4.32;100.00
7918;BME280;4004;42.624;23.386;2023-03-04T05:08:42;94062.88;;;4.41;100.00
7918;BME280;4004;42.624;23.386;2023-03-04T05:11:09;94070.56;;;4.43;100.00
7918;BME280;4004;42.624;23.386;2023-03-04T05:13:35;94071.66;;;4.42;100.00
7918;BME280;4004;42.624;23.386;2023-03-04T05:16:03;94067.72;;;4.48;100.00
7918;BME280;4004;42.624;23.386;2023-03-04T05:18:31;94073.66;;;4.53;100.00
7918;BME280;4004;42.624;23.386;2023-03-04T05:20:59;94080.06;;;4.61;100.00
7918;BME280;4004;42.624;23.386;2023-03-04T05:23:27;94082.06;;;4.64;100.00
7918;BME280;4004;42.624;23.386;2023-03-04T05:25:54;94074.22;;;4.76;100.00
7918;BME280;4004;42.624;23.386;2023-03-04T05:28:21;94085.19;;;4.75;100.00
7918;BME280;4004;42.624;23.386;2023-03-04T05:30:48;94092.88;;;4.76;100.00
7918;BME280;4004;42.624;23.386;2023-03-04T05:33:17;94090.78;;;4.82;100.00
7918;BME280;4004;42.624;23.386;2023-03-04T05:35:47;94087.63;;;4.89;100.00
7918;BME280;4004;42.624;23.386;2023-03-04T05:38:16;94088.91;;;4.91;100.00
7918;BME280;4004;42.624;23.386;2023-03-04T05:40:43;94096.13;;;4.82;100.00
7918;BME280;4004;42.624;23.386;2023-03-04T05:43:10;94082.88;;;4.65;100.00
7918;BME280;4004;42.624;23.386;2023-03-04T05:45:38;94102.44;;;4.69;100.00
7918;BME280;4004;42.624;23.386;2023-03-04T05:48:05;94092.47;;;4.48;100.00
7918;BME280;4004;42.624;23.386;2023-03-04T05:50:32;94097.28;;;4.64;100.00
7918;BME280;4004;42.624;23.386;2023-03-04T05:53:01;94104.13;;;4.73;100.00
7918;BME280;4004;42.624;23.386;2023-03-04T05:55:27;94104.09;;;4.82;100.00
7918;BME280;4004;42.624;23.386;2023-03-04T05:57:54;94097.31;;;4.93;100.00
7918;BME280;4004;42.624;23.386;2023-03-04T06:00:21;94097.78;;;4.95;100.00
7918;BME280;4004;42.624;23.386;2023-03-04T06:02:48;94102.66;;;4.93;100.00
7918;BME280;4004;42.624;23.386;2023-03-04T06:05:15;94106.09;;;5.03;100.00
7918;BME280;4004;42.624;23.386;2023-03-04T06:07:42;94111.09;;;5.04;100.00
7918;BME280;4004;42.624;23.386;2023-03-04T06:10:13;94105.28;;;5.02;100.00
7918;BME280;4004;42.624;23.386;2023-03-04T06:12:40;94113.41;;;5.14;100.00
7918;BME280;4004;42.624;23.386;2023-03-04T06:15:07;94111.50;;;5.15;100.00
7918;BME280;4004;42.624;23.386;2023-03-04T06:17:35;94116.97;;;5.27;100.00
7918;BME280;4004;42.624;23.386;2023-03-04T06:20:03;94113.44;;;5.35;100.00
7918;BME280;4004;42.624;23.386;2023-03-04T06:22:31;94113.75;;;5.43;100.00
7918;BME280;4004;42.624;23.386;2023-03-04T06:24:57;94114.88;;;5.33;100.00
7918;BME280;4004;42.624;23.386;2023-03-04T06:27:26;94111.97;;;5.17;100.00
7918;BME280;4004;42.624;23.386;2023-03-04T06:29:52;94117.06;;;5.01;100.00
7918;BME280;4004;42.624;23.386;2023-03-04T06:32:19;94110.56;;;4.81;100.00
7918;BME280;4004;42.624;23.386;2023-03-04T06:34:46;94117.91;;;4.84;100.00
7918;BME280;4004;42.624;23.386;2023-03-04T06:37:13;94125.00;;;4.71;100.00
7918;BME280;4004;42.624;23.386;2023-03-04T06:39:39;94117.31;;;4.78;100.00
7918;BME280;4004;42.624;23.386;2023-03-04T06:42:06;94127.94;;;4.87;100.00
7918;BME280;4004;42.624;23.386;2023-03-04T06:44:34;94130.25;;;4.89;100.00
7918;BME280;4004;42.624;23.386;2023-03-04T06:47:01;94129.47;;;4.88;100.00
7918;BME280;4004;42.624;23.386;2023-03-04T06:49:28;94128.91;;;4.74;100.00
7918;BME280;4004;42.624;23.386;2023-03-04T06:51:54;94132.19;;;4.71;100.00
7918;BME280;4004;42.624;23.386;2023-03-04T06:54:21;94134.22;;;4.74;100.00
7918;BME280;4004;42.624;23.386;2023-03-04T06:56:48;94134.03;;;4.88;100.00
7918;BME280;4004;42.624;23.386;2023-03-04T06:59:15;94135.09;;;4.95;100.00
7918;BME280;4004;42.624;23.386;2023-03-04T07:01:43;94135.75;;;4.84;100.00
7918;BME280;4004;42.624;23.386;2023-03-04T07:04:12;94133.88;;;4.84;100.00
7918;BME280;4004;42.624;23.386;2023-03-04T07:06:39;94138.59;;;4.87;100.00
7918;BME280;4004;42.624;23.386;2023-03-04T07:09:06;94136.06;;;4.82;100.00
7918;BME280;4004;42.624;23.386;2023-03-04T07:11:32;94136.53;;;4.84;100.00
7918;BME280;4004;42.624;23.386;2023-03-04T07:13:59;94147.03;;;4.89;100.00
7918;BME280;4004;42.624;23.386;2023-03-04T07:16:26;94138.59;;;4.87;100.00
7918;BME280;4004;42.624;23.386;2023-03-04T07:18:54;94140.28;;;4.92;100.00
7918;BME280;4004;42.624;23.386;2023-03-04T07:21:21;94136.38;;;4.98;100.00
7918;BME280;4004;42.624;23.386;2023-03-04T07:23:48;94148.38;;;5.04;100.00
7918;BME280;4004;42.624;23.386;2023-03-04T07:26:15;94156.06;;;5.06;100.00
7918;BME280;4004;42.624;23.386;2023-03-04T07:28:42;94147.00;;;4.98;100.00
7918;BME280;4004;42.624;23.386;2023-03-04T07:31:10;94156.72;;;5.03;100.00
7918;BME280;4004;42.624;23.386;2023-03-04T07:33:37;94153.88;;;5.08;100.00
7918;BME280;4004;42.624;23.386;2023-03-04T07:36:06;94149.44;;;5.21;100.00
7918;BME280;4004;42.624;23.386;2023-03-04T07:38:33;94144.66;;;5.35;100.00
7918;BME280;4004;42.624;23.386;2023-03-04T07:40:59;94148.72;;;5.41;100.00
7918;BME280;4004;42.624;23.386;2023-03-04T07:43:26;94151.16;;;5.55;100.00
7918;BME280;4004;42.624;23.386;2023-03-04T07:45:58;94140.59;;;5.67;100.00
7918;BME280;4004;42.624;23.386;2023-03-04T07:48:25;94152.25;;;5.84;100.00
7918;BME280;4004;42.624;23.386;2023-03-04T07:51:07;94138.06;;;5.92;100.00
7918;BME280;4004;42.624;23.386;2023-03-04T07:53:34;94140.44;;;6.14;100.00
7918;BME280;4004;42.624;23.386;2023-03-04T07:56:02;94139.59;;;6.22;100.00
7918;BME280;4004;42.624;23.386;2023-03-04T07:58:29;94137.97;;;6.30;100.00
7918;BME280;4004;42.624;23.386;2023-03-04T08:00:56;94143.22;;;6.39;100.00
7918;BME280;4004;42.624;23.386;2023-03-04T08:03:22;94139.34;;;6.49;100.00
7918;BME280;4004;42.624;23.386;2023-03-04T08:05:49;94144.63;;;6.57;100.00
7918;BME280;4004;42.624;23.386;2023-03-04T08:08:17;94136.75;;;6.61;100.00
7918;BME280;4004;42.624;23.386;2023-03-04T08:10:44;94136.84;;;6.64;100.00
7918;BME280;4004;42.624;23.386;2023-03-04T08:13:11;94134.00;;;6.70;100.00
7918;BME280;4004;42.624;23.386;2023-03-04T08:15:41;94140.66;;;6.76;100.00
7918;BME280;4004;42.624;23.386;2023-03-04T08:18:08;94133.16;;;6.57;100.00
7918;BME280;4004;42.624;23.386;2023-03-04T08:20:35;94133.19;;;6.69;100.00
7918;BME280;4004;42.624;23.386;2023-03-04T08:23:02;94135.91;;;6.81;100.00
7918;BME280;4004;42.624;23.386;2023-03-04T08:25:30;94134.94;;;6.98;100.00
7918;BME280;4004;42.624;23.386;2023-03-04T08:27:58;94130.28;;;7.08;100.00
7918;BME280;4004;42.624;23.386;2023-03-04T08:30:24;94132.50;;;7.18;100.00
7918;BME280;4004;42.624;23.386;2023-03-04T08:32:52;94130.53;;;7.27;100.00
7918;BME280;4004;42.624;23.386;2023-03-04T08:35:19;94128.97;;;7.38;100.00
7918;BME280;4004;42.624;23.386;2023-03-04T08:37:46;94128.72;;;7.56;100.00
7918;BME280;4004;42.624;23.386;2023-03-04T08:40:13;94129.38;;;7.77;100.00
7918;BME280;4004;42.624;23.386;2023-03-04T08:42:41;94124.69;;;7.86;100.00
7918;BME280;4004;42.624;23.386;2023-03-04T08:45:09;94132.91;;;8.06;100.00
7918;BME280;4004;42.624;23.386;2023-03-04T08:47:36;94130.69;;;8.08;100.00
7918;BME280;4004;42.624;23.386;2023-03-04T08:50:04;94132.91;;;8.18;100.00
7918;BME280;4004;42.624;23.386;2023-03-04T08:52:31;94122.81;;;8.27;100.00
7918;BME280;4004;42.624;23.386;2023-03-04T08:54:58;94128.13;;;8.52;99.52
7918;BME280;4004;42.624;23.386;2023-03-04T08:57:25;94123.13;;;8.66;96.44
7918;BME280;4004;42.624;23.386;2023-03-04T08:59:53;94129.50;;;8.62;95.16
7918;BME280;4004;42.624;23.386;2023-03-04T09:02:20;94118.50;;;8.51;97.22
7918;BME280;4004;42.624;23.386;2023-03-04T09:04:46;94115.34;;;8.61;97.30
7918;BME280;4004;42.624;23.386;2023-03-04T09:07:13;94117.63;;;8.75;96.02
7918;BME280;4004;42.624;23.386;2023-03-04T09:09:40;94119.09;;;8.73;95.30
7918;BME280;4004;42.624;23.386;2023-03-04T09:12:07;94113.56;;;8.81;95.58
7918;BME280;4004;42.624;23.386;2023-03-04T09:14:34;94119.66;;;8.94;95.39
7918;BME280;4004;42.624;23.386;2023-03-04T09:17:03;94109.19;;;9.05;94.75
7918;BME280;4004;42.624;23.386;2023-03-04T09:19:29;94109.38;;;9.12;93.20
7918;BME280;4004;42.624;23.386;2023-03-04T09:21:56;94111.19;;;9.08;92.31
7918;BME280;4004;42.624;23.386;2023-03-04T09:24:24;94114.72;;;9.12;91.46
7918;BME280;4004;42.624;23.386;2023-03-04T09:26:51;94111.19;;;9.08;91.04
7918;BME280;4004;42.624;23.386;2023-03-04T09:29:18;94105.81;;;9.08;90.70
7918;BME280;4004;42.624;23.386;2023-03-04T09:31:45;94103.41;;;9.19;90.24
7918;BME280;4004;42.624;23.386;2023-03-04T09:34:13;94108.66;;;9.31;90.16
7918;BME280;4004;42.624;23.386;2023-03-04T09:36:40;94104.50;;;9.49;88.48
7918;BME280;4004;42.624;23.386;2023-03-04T09:39:07;94107.34;;;9.57;87.58
7918;BME280;4004;42.624;23.386;2023-03-04T09:41:38;94101.63;;;9.58;87.38
7918;BME280;4004;42.624;23.386;2023-03-04T09:44:13;94098.69;;;9.63;87.74
7918;BME280;4004;42.624;23.386;2023-03-04T09:46:42;94101.00;;;9.65;87.50
7918;BME280;4004;42.624;23.386;2023-03-04T09:49:09;94103.28;;;9.31;90.16
7918;BME280;4004;42.624;23.386;2023-03-04T09:51:46;94100.28;;;9.01;93.28
7918;BME280;4004;42.624;23.386;2023-03-04T09:54:19;94096.59;;;8.77;94.60
7918;BME280;4004;42.624;23.386;2023-03-04T09:56:50;94095.88;;;8.64;94.74
7918;BME280;4004;42.624;23.386;2023-03-04T09:59:24;94087.66;;;8.57;94.92
7918;BME280;4004;42.624;23.386;2023-03-04T10:01:54;94088.53;;;8.61;94.28
7918;BME280;4004;42.624;23.386;2023-03-04T10:04:29;94080.53;;;8.77;94.19
7918;BME280;4004;42.624;23.386;2023-03-04T10:06:59;94075.84;;;8.58;94.71
7918;BME280;4004;42.624;23.386;2023-03-04T10:09:29;94073.53;;;8.44;94.40
7918;BME280;4004;42.624;23.386;2023-03-04T10:12:01;94072.38;;;8.29;95.21
7918;BME280;4004;42.624;23.386;2023-03-04T10:14:34;94079.59;;;8.29;96.29
7918;BME280;4004;42.624;23.386;2023-03-04T10:17:07;94069.25;;;8.27;97.63
7918;BME280;4004;42.624;23.386;2023-03-04T10:19:47;94072.97;;;8.51;95.98
7918;BME280;4004;42.624;23.386;2023-03-04T10:22:25;94069.34;;;8.59;94.49
7918;BME280;4004;42.624;23.386;2023-03-04T10:24:54;94073.34;;;8.65;93.42
7918;BME280;4004;42.624;23.386;2023-03-04T10:27:21;94069.00;;;8.45;95.84
7918;BME280;4004;42.624;23.386;2023-03-04T10:29:49;94063.94;;;8.15;98.22
7918;BME280;4004;42.624;23.386;2023-03-04T10:32:18;94059.03;;;8.17;99.37
7918;BME280;4004;42.624;23.386;2023-03-04T10:34:45;94058.03;;;8.38;97.69
7918;BME280;4004;42.624;23.386;2023-03-04T10:37:12;94045.66;;;8.45;96.75
7918;BME280;4004;42.624;23.386;2023-03-04T10:39:42;94048.22;;;8.42;97.62
7918;BME280;4004;42.624;23.386;2023-03-04T10:42:23;94043.63;;;8.42;96.85
7918;BME280;4004;42.624;23.386;2023-03-04T10:44:53;94045.94;;;8.72;96.37
7918;BME280;4004;42.624;23.386;2023-03-04T10:47:23;94038.50;;;8.97;94.48
7918;BME280;4004;42.624;23.386;2023-03-04T10:49:52;94037.03;;;9.16;91.77
7918;BME280;4004;42.624;23.386;2023-03-04T10:52:26;94034.44;;;9.03;92.27
7918;BME280;4004;42.624;23.386;2023-03-04T10:54:56;94032.53;;;9.20;90.96
7918;BME280;4004;42.624;23.386;2023-03-04T10:57:27;94027.44;;;9.15;91.32
7918;BME280;4004;42.624;23.386;2023-03-04T10:59:57;94024.50;;;8.88;92.39
7918;BME280;4004;42.624;23.386;2023-03-04T11:02:25;94020.63;;;8.69;92.27
7918;BME280;4004;42.624;23.386;2023-03-04T11:04:55;94018.09;;;8.77;92.96
7918;BME280;4004;42.624;23.386;2023-03-04T11:07:23;94011.81;;;8.85;92.21
7918;BME280;4004;42.624;23.386;2023-03-04T11:09:51;94003.75;;;8.85;91.34
7918;BME280;4004;42.624;23.386;2023-03-04T11:12:21;94002.88;;;8.97;91.36
7918;BME280;4004;42.624;23.386;2023-03-04T11:14:57;94005.22;;;8.98;91.23
7918;BME280;4004;42.624;23.386;2023-03-04T11:17:25;93999.50;;;9.00;92.03
7918;BME280;4004;42.624;23.386;2023-03-04T11:19:56;93990.41;;;9.04;91.10
7918;BME280;4004;42.624;23.386;2023-03-04T11:22:24;93983.38;;;9.16;91.04
7918;BME280;4004;42.624;23.386;2023-03-04T11:24:59;93982.22;;;9.32;91.07
7918;BME280;4004;42.624;23.386;2023-03-04T11:27:38;93983.88;;;9.37;90.89
7918;BME280;4004;42.624;23.386;2023-03-04T11:30:26;93975.16;;;9.24;91.60
7918;BME280;4004;42.624;23.386;2023-03-04T11:33:03;93973.66;;;9.27;90.55
7918;BME280;4004;42.624;23.386;2023-03-04T11:35:43;93969.53;;;9.29;90.86
7918;BME280;4004;42.624;23.386;2023-03-04T11:38:16;93962.53;;;9.44;90.12
7918;BME280;4004;42.624;23.386;2023-03-04T11:40:45;93965.03;;;9.53;89.12
7918;BME280;4004;42.624;23.386;2023-03-04T11:43:18;93966.97;;;9.72;86.99
7918;BME280;4004;42.624;23.386;2023-03-04T11:49:06;93960.00;;;9.32;86.25
7918;BME280;4004;42.624;23.386;2023-03-04T11:51:43;93954.28;;;9.53;86.67
7918;BME280;4004;42.624;23.386;2023-03-04T11:54:24;93950.13;;;9.75;84.63
7918;BME280;4004;42.624;23.386;2023-03-04T11:56:58;93950.13;;;9.55;84.72
7918;BME280;4004;42.624;23.386;2023-03-04T11:59:47;93953.16;;;9.73;83.62
7918;BME280;4004;42.624;23.386;2023-03-04T12:02:17;93934.81;;;9.75;83.28
7918;BME280;4004;42.624;23.386;2023-03-04T12:05:00;93938.88;;;9.89;84.13
7918;BME280;4004;42.624;23.386;2023-03-04T12:07:58;93930.59;;;10.17;83.26
7918;BME280;4004;42.624;23.386;2023-03-04T12:10:29;93929.84;;;10.40;82.42
7918;BME280;4004;42.624;23.386;2023-03-04T12:16:24;93934.06;;;10.87;79.61
7918;BME280;4004;42.624;23.386;2023-03-04T12:19:05;93922.59;;;10.90;78.22
7918;BME280;4004;42.624;23.386;2023-03-04T12:21:54;93920.53;;;11.06;77.59
7918;BME280;4004;42.624;23.386;2023-03-04T12:24:54;93921.19;;;11.26;75.97
7918;BME280;4004;42.624;23.386;2023-03-04T12:27:30;93910.84;;;11.02;72.98
7918;BME280;4004;42.624;23.386;2023-03-04T12:30:05;93918.06;;;10.71;73.33
7918;BME280;4004;42.624;23.386;2023-03-04T12:32:46;93919.50;;;10.65;74.33
7918;BME280;4004;42.624;23.386;2023-03-04T12:35:27;93908.66;;;10.34;75.84
7918;BME280;4004;42.624;23.386;2023-03-04T12:38:26;93912.44;;;10.30;76.24
7918;BME280;4004;42.624;23.386;2023-03-04T12:41:01;93906.84;;;10.19;76.54
7918;BME280;4004;42.624;23.386;2023-03-04T12:43:40;93915.78;;;9.84;78.71
7918;BME280;4004;42.624;23.386;2023-03-04T12:46:17;93901.69;;;9.68;79.95
7918;BME280;4004;42.624;23.386;2023-03-04T12:48:55;93901.19;;;9.62;80.53
7918;BME280;4004;42.624;23.386;2023-03-04T12:51:30;93897.66;;;9.58;81.20
7918;BME280;4004;42.624;23.386;2023-03-04T12:54:16;93893.34;;;9.53;81.40
7918;BME280;4004;42.624;23.386;2023-03-04T12:56:51;93888.47;;;9.59;81.74
7918;BME280;4004;42.624;23.386;2023-03-04T12:59:21;93881.63;;;9.62;81.91
7918;BME280;4004;42.624;23.386;2023-03-04T13:01:54;93882.94;;;9.71;82.25
7918;BME280;4004;42.624;23.386;2023-03-04T13:04:27;93875.41;;;9.77;82.07
7918;BME280;4004;42.624;23.386;2023-03-04T13:07:07;93875.91;;;9.83;81.81
7918;BME280;4004;42.624;23.386;2023-03-04T13:09:40;93874.19;;;9.94;81.56
7918;BME280;4004;42.624;23.386;2023-03-04T13:12:14;93870.53;;;10.06;81.28
7918;BME280;4004;42.624;23.386;2023-03-04T13:17:51;93869.34;;;10.03;80.67
7918;BME280;4004;42.624;23.386;2023-03-04T13:20:31;93858.59;;;10.03;80.88
7918;BME280;4004;42.624;23.386;2023-03-04T13:22:58;93861.63;;;9.79;81.52
7918;BME280;4004;42.624;23.386;2023-03-04T13:25:34;93855.34;;;9.51;83.63
7918;BME280;4004;42.624;23.386;2023-03-04T13:28:22;93855.81;;;9.34;85.55
7918;BME280;4004;42.624;23.386;2023-03-04T13:31:16;93854.53;;;9.28;85.74
7918;BME280;4004;42.624;23.386;2023-03-04T13:33:51;93850.56;;;9.22;86.08
7918;BME280;4004;42.624;23.386;2023-03-04T13:39:36;93845.75;;;9.31;85.51